sensor_id;sensor_type;location;lat;lon;timestamp;P1;durP1;ratioP1;P2;durP2;ratioP2
64885;SDS011;51514;52.206;5.114;2023-06-10T00:01:12;7.05;;;4.78;;
64885;SDS011;51514;52.206;5.114;2023-06-10T00:03:37;9.23;;;5.05;;
64885;SDS011;51514;52.206;5.114;2023-06-10T00:06:03;6.70;;;4.85;;
64885;SDS011;51514;52.206;5.114;2023-06-10T00:08:28;8.20;;;4.95;;
64885;SDS011;51514;52.206;5.114;2023-06-10T00:10:56;9.30;;;5.00;;
64885;SDS011;51514;52.206;5.114;2023-06-10T00:13:21;9.75;;;5.15;;
64885;SDS011;51514;52.206;5.114;2023-06-10T00:15:47;8.88;;;4.65;;
64885;SDS011;51514;52.206;5.114;2023-06-10T00:18:12;8.77;;;5.32;;
64885;SDS011;51514;52.206;5.114;2023-06-10T00:20:37;10.43;;;5.10;;
64885;SDS011;51514;52.206;5.114;2023-06-10T00:23:04;11.27;;;5.63;;
64885;SDS011;51514;52.206;5.114;2023-06-10T00:25:31;12.52;;;5.35;;
64885;SDS011;51514;52.206;5.114;2023-06-10T00:27:57;10.23;;;5.10;;
64885;SDS011;51514;52.206;5.114;2023-06-10T00:30:22;12.90;;;5.32;;
64885;SDS011;51514;52.206;5.114;2023-06-10T00:32:48;9.70;;;5.07;;
64885;SDS011;51514;52.206;5.114;2023-06-10T00:35:13;9.85;;;5.38;;
64885;SDS011;51514;52.206;5.114;2023-06-10T00:37:38;8.32;;;4.88;;
64885;SDS011;51514;52.206;5.114;2023-06-10T00:40:04;11.43;;;5.43;;
64885;SDS011;51514;52.206;5.114;2023-06-10T00:42:30;7.68;;;4.70;;
64885;SDS011;51514;52.206;5.114;2023-06-10T00:44:56;8.77;;;5.00;;
64885;SDS011;51514;52.206;5.114;2023-06-10T00:47:21;9.55;;;5.32;;
64885;SDS011;51514;52.206;5.114;2023-06-10T00:49:47;9.38;;;4.50;;
64885;SDS011;51514;52.206;5.114;2023-06-10T00:52:14;11.90;;;5.10;;
64885;SDS011;51514;52.206;5.114;2023-06-10T00:54:41;11.30;;;4.97;;
64885;SDS011;51514;52.206;5.114;2023-06-10T00:57:07;8.00;;;5.28;;
64885;SDS011;51514;52.206;5.114;2023-06-10T00:59:32;8.90;;;4.82;;
64885;SDS011;51514;52.206;5.114;2023-06-10T01:01:59;10.70;;;5.25;;
64885;SDS011;51514;52.206;5.114;2023-06-10T01:04:25;11.45;;;5.18;;
64885;SDS011;51514;52.206;5.114;2023-06-10T01:15:14;7.35;;;4.70;;
64885;SDS011;51514;52.206;5.114;2023-06-10T01:20:22;9.27;;;4.88;;
64885;SDS011;51514;52.206;5.114;2023-06-10T01:22:49;10.38;;;4.55;;
64885;SDS011;51514;52.206;5.114;2023-06-10T01:25:15;10.20;;;5.22;;
64885;SDS011;51514;52.206;5.114;2023-06-10T01:27:41;8.30;;;4.70;;
64885;SDS011;51514;52.206;5.114;2023-06-10T01:30:13;11.18;;;5.43;;
64885;SDS011;51514;52.206;5.114;2023-06-10T01:32:45;9.77;;;5.07;;
64885;SDS011;51514;52.206;5.114;2023-06-10T01:35:13;9.88;;;5.10;;
64885;SDS011;51514;52.206;5.114;2023-06-10T01:37:39;8.43;;;4.97;;
64885;SDS011;51514;52.206;5.114;2023-06-10T01:40:07;8.77;;;5.00;;
64885;SDS011;51514;52.206;5.114;2023-06-10T01:42:34;10.25;;;5.00;;
64885;SDS011;51514;52.206;5.114;2023-06-10T01:45:00;10.13;;;5.47;;
64885;SDS011;51514;52.206;5.114;2023-06-10T01:47:25;9.45;;;5.38;;
64885;SDS011;51514;52.206;5.114;2023-06-10T01:49:50;12.57;;;5.10;;
64885;SDS011;51514;52.206;5.114;2023-06-10T01:52:16;10.20;;;5.40;;
64885;SDS011;51514;52.206;5.114;2023-06-10T01:54:41;10.48;;;5.22;;
64885;SDS011;51514;52.206;5.114;2023-06-10T01:57:07;9.15;;;5.03;;
64885;SDS011;51514;52.206;5.114;2023-06-10T01:59:32;10.05;;;5.13;;
64885;SDS011;51514;52.206;5.114;2023-06-10T02:01:57;6.80;;;5.10;;
64885;SDS011;51514;52.206;5.114;2023-06-10T02:04:23;7.55;;;5.55;;
64885;SDS011;51514;52.206;5.114;2023-06-10T02:06:48;9.93;;;5.70;;
64885;SDS011;51514;52.206;5.114;2023-06-10T02:09:13;7.88;;;4.63;;
64885;SDS011;51514;52.206;5.114;2023-06-10T02:11:39;10.82;;;5.47;;
64885;SDS011;51514;52.206;5.114;2023-06-10T02:14:04;8.75;;;5.43;;
64885;SDS011;51514;52.206;5.114;2023-06-10T02:16:30;9.18;;;5.30;;
64885;SDS011;51514;52.206;5.114;2023-06-10T02:18:56;8.75;;;4.93;;
64885;SDS011;51514;52.206;5.114;2023-06-10T02:21:21;10.75;;;5.75;;
64885;SDS011;51514;52.206;5.114;2023-06-10T02:23:46;8.45;;;5.20;;
64885;SDS011;51514;52.206;5.114;2023-06-10T02:26:12;11.05;;;5.57;;
64885;SDS011;51514;52.206;5.114;2023-06-10T02:28:37;10.55;;;6.60;;
64885;SDS011;51514;52.206;5.114;2023-06-10T02:31:02;8.70;;;5.47;;
64885;SDS011;51514;52.206;5.114;2023-06-10T02:33:28;8.25;;;6.00;;
64885;SDS011;51514;52.206;5.114;2023-06-10T02:35:53;10.57;;;5.88;;
64885;SDS011;51514;52.206;5.114;2023-06-10T02:38:20;8.65;;;6.07;;
64885;SDS011;51514;52.206;5.114;2023-06-10T02:40:45;12.48;;;6.05;;
64885;SDS011;51514;52.206;5.114;2023-06-10T02:43:11;11.93;;;5.78;;
64885;SDS011;51514;52.206;5.114;2023-06-10T02:45:36;8.27;;;5.53;;
64885;SDS011;51514;52.206;5.114;2023-06-10T02:48:01;8.32;;;5.88;;
64885;SDS011;51514;52.206;5.114;2023-06-10T02:50:27;14.15;;;6.28;;
64885;SDS011;51514;52.206;5.114;2023-06-10T02:52:52;10.63;;;5.82;;
64885;SDS011;51514;52.206;5.114;2023-06-10T02:55:17;12.60;;;5.97;;
64885;SDS011;51514;52.206;5.114;2023-06-10T02:57:42;10.68;;;5.80;;
64885;SDS011;51514;52.206;5.114;2023-06-10T03:00:08;12.40;;;5.55;;
64885;SDS011;51514;52.206;5.114;2023-06-10T03:02:35;9.25;;;6.25;;
64885;SDS011;51514;52.206;5.114;2023-06-10T03:05:02;10.05;;;5.35;;
64885;SDS011;51514;52.206;5.114;2023-06-10T03:07:28;8.15;;;5.20;;
64885;SDS011;51514;52.206;5.114;2023-06-10T03:09:53;13.43;;;6.28;;
64885;SDS011;51514;52.206;5.114;2023-06-10T03:12:18;9.93;;;5.95;;
64885;SDS011;51514;52.206;5.114;2023-06-10T03:14:43;10.60;;;5.72;;
64885;SDS011;51514;52.206;5.114;2023-06-10T03:17:09;13.05;;;5.75;;
64885;SDS011;51514;52.206;5.114;2023-06-10T03:19:34;11.95;;;5.97;;
64885;SDS011;51514;52.206;5.114;2023-06-10T03:22:09;7.70;;;5.20;;
64885;SDS011;51514;52.206;5.114;2023-06-10T03:24:36;11.40;;;6.30;;
64885;SDS011;51514;52.206;5.114;2023-06-10T03:27:04;11.75;;;5.32;;
64885;SDS011;51514;52.206;5.114;2023-06-10T03:29:31;9.10;;;5.47;;
64885;SDS011;51514;52.206;5.114;2023-06-10T03:31:57;10.10;;;5.57;;
64885;SDS011;51514;52.206;5.114;2023-06-10T03:34:22;11.30;;;5.95;;
64885;SDS011;51514;52.206;5.114;2023-06-10T03:36:48;13.90;;;6.35;;
64885;SDS011;51514;52.206;5.114;2023-06-10T03:39:14;8.90;;;5.72;;
64885;SDS011;51514;52.206;5.114;2023-06-10T03:41:39;11.15;;;6.72;;
64885;SDS011;51514;52.206;5.114;2023-06-10T03:44:04;10.10;;;5.95;;
64885;SDS011;51514;52.206;5.114;2023-06-10T03:46:29;8.48;;;5.57;;
64885;SDS011;51514;52.206;5.114;2023-06-10T03:48:55;12.75;;;5.97;;
64885;SDS011;51514;52.206;5.114;2023-06-10T03:51:20;11.98;;;6.03;;
64885;SDS011;51514;52.206;5.114;2023-06-10T03:53:46;14.20;;;5.85;;
64885;SDS011;51514;52.206;5.114;2023-06-10T03:56:11;10.93;;;6.00;;
64885;SDS011;51514;52.206;5.114;2023-06-10T03:58:37;10.38;;;4.95;;
64885;SDS011;51514;52.206;5.114;2023-06-10T04:01:02;10.45;;;5.40;;
64885;SDS011;51514;52.206;5.114;2023-06-10T04:03:27;10.30;;;5.47;;
64885;SDS011;51514;52.206;5.114;2023-06-10T04:05:53;10.55;;;6.65;;
64885;SDS011;51514;52.206;5.114;2023-06-10T04:08:19;10.82;;;6.15;;
64885;SDS011;51514;52.206;5.114;2023-06-10T04:10:45;12.23;;;6.63;;
64885;SDS011;51514;52.206;5.114;2023-06-10T04:13:11;9.05;;;5.47;;
64885;SDS011;51514;52.206;5.114;2023-06-10T04:15:36;9.23;;;5.25;;
64885;SDS011;51514;52.206;5.114;2023-06-10T04:18:01;10.82;;;5.90;;
64885;SDS011;51514;52.206;5.114;2023-06-10T04:20:27;10.23;;;6.43;;
64885;SDS011;51514;52.206;5.114;2023-06-10T04:22:52;12.88;;;6.68;;
64885;SDS011;51514;52.206;5.114;2023-06-10T04:25:18;11.38;;;6.07;;
64885;SDS011;51514;52.206;5.114;2023-06-10T04:27:44;10.43;;;6.13;;
64885;SDS011;51514;52.206;5.114;2023-06-10T04:30:09;11.95;;;6.78;;
64885;SDS011;51514;52.206;5.114;2023-06-10T04:32:35;9.27;;;6.00;;
64885;SDS011;51514;52.206;5.114;2023-06-10T04:35:00;10.13;;;5.78;;
64885;SDS011;51514;52.206;5.114;2023-06-10T04:37:25;10.57;;;5.88;;
64885;SDS011;51514;52.206;5.114;2023-06-10T04:39:51;10.57;;;5.95;;
64885;SDS011;51514;52.206;5.114;2023-06-10T04:42:16;12.90;;;6.70;;
64885;SDS011;51514;52.206;5.114;2023-06-10T04:44:41;13.13;;;6.30;;
64885;SDS011;51514;52.206;5.114;2023-06-10T04:47:08;7.50;;;5.70;;
64885;SDS011;51514;52.206;5.114;2023-06-10T04:49:34;13.85;;;6.07;;
64885;SDS011;51514;52.206;5.114;2023-06-10T04:52:00;11.77;;;6.88;;
64885;SDS011;51514;52.206;5.114;2023-06-10T04:54:25;13.85;;;6.22;;
64885;SDS011;51514;52.206;5.114;2023-06-10T04:56:51;9.20;;;6.07;;
64885;SDS011;51514;52.206;5.114;2023-06-10T04:59:16;9.57;;;5.68;;
64885;SDS011;51514;52.206;5.114;2023-06-10T05:01:42;11.63;;;6.13;;
64885;SDS011;51514;52.206;5.114;2023-06-10T05:04:07;10.38;;;6.18;;
64885;SDS011;51514;52.206;5.114;2023-06-10T05:06:33;10.38;;;6.38;;
64885;SDS011;51514;52.206;5.114;2023-06-10T05:08:58;9.55;;;6.20;;
64885;SDS011;51514;52.206;5.114;2023-06-10T05:11:23;8.68;;;5.80;;
64885;SDS011;51514;52.206;5.114;2023-06-10T05:13:49;12.55;;;6.38;;
64885;SDS011;51514;52.206;5.114;2023-06-10T05:16:14;11.10;;;6.18;;
64885;SDS011;51514;52.206;5.114;2023-06-10T05:18:40;16.75;;;6.40;;
64885;SDS011;51514;52.206;5.114;2023-06-10T05:21:05;10.30;;;6.00;;
64885;SDS011;51514;52.206;5.114;2023-06-10T05:23:31;11.10;;;6.65;;
64885;SDS011;51514;52.206;5.114;2023-06-10T05:25:56;11.13;;;6.65;;
64885;SDS011;51514;52.206;5.114;2023-06-10T05:28:23;10.25;;;6.30;;
64885;SDS011;51514;52.206;5.114;2023-06-10T05:30:48;11.63;;;6.55;;
64885;SDS011;51514;52.206;5.114;2023-06-10T05:33:14;9.73;;;5.88;;
64885;SDS011;51514;52.206;5.114;2023-06-10T05:35:40;11.50;;;6.28;;
64885;SDS011;51514;52.206;5.114;2023-06-10T05:38:05;8.55;;;6.35;;
64885;SDS011;51514;52.206;5.114;2023-06-10T05:40:31;10.80;;;6.57;;
64885;SDS011;51514;52.206;5.114;2023-06-10T05:42:57;10.38;;;5.90;;
64885;SDS011;51514;52.206;5.114;2023-06-10T05:45:22;9.70;;;6.03;;
64885;SDS011;51514;52.206;5.114;2023-06-10T05:47:47;12.07;;;6.60;;
64885;SDS011;51514;52.206;5.114;2023-06-10T05:50:12;17.38;;;6.38;;
64885;SDS011;51514;52.206;5.114;2023-06-10T05:52:38;10.88;;;7.00;;
64885;SDS011;51514;52.206;5.114;2023-06-10T05:55:06;11.93;;;6.60;;
64885;SDS011;51514;52.206;5.114;2023-06-10T05:57:31;10.93;;;6.55;;
64885;SDS011;51514;52.206;5.114;2023-06-10T05:59:57;15.27;;;7.25;;
64885;SDS011;51514;52.206;5.114;2023-06-10T06:02:22;10.75;;;6.15;;
64885;SDS011;51514;52.206;5.114;2023-06-10T06:04:48;9.35;;;6.50;;
64885;SDS011;51514;52.206;5.114;2023-06-10T06:07:13;13.20;;;6.65;;
64885;SDS011;51514;52.206;5.114;2023-06-10T06:09:39;12.75;;;6.97;;
64885;SDS011;51514;52.206;5.114;2023-06-10T06:12:05;9.98;;;6.35;;
64885;SDS011;51514;52.206;5.114;2023-06-10T06:14:32;12.30;;;6.43;;
64885;SDS011;51514;52.206;5.114;2023-06-10T06:16:58;10.68;;;5.82;;
64885;SDS011;51514;52.206;5.114;2023-06-10T06:19:23;10.20;;;6.70;;
64885;SDS011;51514;52.206;5.114;2023-06-10T06:21:48;9.73;;;6.35;;
64885;SDS011;51514;52.206;5.114;2023-06-10T06:24:15;10.13;;;6.60;;
64885;SDS011;51514;52.206;5.114;2023-06-10T06:26:41;11.55;;;6.25;;
64885;SDS011;51514;52.206;5.114;2023-06-10T06:29:06;10.82;;;6.22;;
64885;SDS011;51514;52.206;5.114;2023-06-10T06:31:31;8.65;;;6.53;;
64885;SDS011;51514;52.206;5.114;2023-06-10T06:33:57;9.40;;;6.07;;
64885;SDS011;51514;52.206;5.114;2023-06-10T06:36:22;11.93;;;5.93;;
64885;SDS011;51514;52.206;5.114;2023-06-10T06:38:48;9.70;;;6.00;;
64885;SDS011;51514;52.206;5.114;2023-06-10T06:41:13;12.00;;;6.38;;
64885;SDS011;51514;52.206;5.114;2023-06-10T06:43:40;12.55;;;5.75;;
64885;SDS011;51514;52.206;5.114;2023-06-10T06:46:05;13.25;;;6.43;;
64885;SDS011;51514;52.206;5.114;2023-06-10T06:48:31;10.88;;;6.03;;
64885;SDS011;51514;52.206;5.114;2023-06-10T06:50:56;12.10;;;6.97;;
64885;SDS011;51514;52.206;5.114;2023-06-10T06:53:23;9.55;;;5.65;;
64885;SDS011;51514;52.206;5.114;2023-06-10T06:55:48;12.63;;;7.03;;
64885;SDS011;51514;52.206;5.114;2023-06-10T06:58:14;12.35;;;6.60;;
64885;SDS011;51514;52.206;5.114;2023-06-10T07:00:39;12.00;;;6.25;;
64885;SDS011;51514;52.206;5.114;2023-06-10T07:03:05;11.73;;;6.45;;
64885;SDS011;51514;52.206;5.114;2023-06-10T07:05:30;11.63;;;6.25;;
64885;SDS011;51514;52.206;5.114;2023-06-10T07:07:56;11.15;;;5.93;;
64885;SDS011;51514;52.206;5.114;2023-06-10T07:10:24;11.05;;;5.88;;
64885;SDS011;51514;52.206;5.114;2023-06-10T07:12:50;14.27;;;5.88;;
64885;SDS011;51514;52.206;5.114;2023-06-10T07:15:16;11.38;;;6.55;;
64885;SDS011;51514;52.206;5.114;2023-06-10T07:17:42;10.75;;;6.55;;
64885;SDS011;51514;52.206;5.114;2023-06-10T07:20:08;8.90;;;5.55;;
64885;SDS011;51514;52.206;5.114;2023-06-10T07:22:34;11.45;;;6.13;;
64885;SDS011;51514;52.206;5.114;2023-06-10T07:24:59;11.48;;;5.82;;
64885;SDS011;51514;52.206;5.114;2023-06-10T07:27:24;10.25;;;5.90;;
64885;SDS011;51514;52.206;5.114;2023-06-10T07:29:50;9.85;;;6.00;;
64885;SDS011;51514;52.206;5.114;2023-06-10T07:32:16;11.77;;;6.57;;
64885;SDS011;51514;52.206;5.114;2023-06-10T07:34:43;9.02;;;5.78;;
64885;SDS011;51514;52.206;5.114;2023-06-10T07:37:08;10.50;;;7.05;;
64885;SDS011;51514;52.206;5.114;2023-06-10T07:39:34;12.63;;;6.25;;
64885;SDS011;51514;52.206;5.114;2023-06-10T07:41:59;13.50;;;6.32;;
64885;SDS011;51514;52.206;5.114;2023-06-10T07:44:25;10.93;;;6.80;;
64885;SDS011;51514;52.206;5.114;2023-06-10T07:46:50;11.38;;;6.45;;
64885;SDS011;51514;52.206;5.114;2023-06-10T07:49:15;13.80;;;6.45;;
64885;SDS011;51514;52.206;5.114;2023-06-10T07:51:41;9.57;;;5.93;;
64885;SDS011;51514;52.206;5.114;2023-06-10T07:54:06;13.40;;;6.28;;
64885;SDS011;51514;52.206;5.114;2023-06-10T07:56:31;11.45;;;5.50;;
64885;SDS011;51514;52.206;5.114;2023-06-10T07:58:57;10.20;;;6.57;;
64885;SDS011;51514;52.206;5.114;2023-06-10T08:01:22;9.90;;;6.38;;
64885;SDS011;51514;52.206;5.114;2023-06-10T08:03:49;13.43;;;6.18;;
64885;SDS011;51514;52.206;5.114;2023-06-10T08:06:14;11.60;;;5.85;;
64885;SDS011;51514;52.206;5.114;2023-06-10T08:08:41;13.43;;;6.00;;
64885;SDS011;51514;52.206;5.114;2023-06-10T08:11:08;9.38;;;5.07;;
64885;SDS011;51514;52.206;5.114;2023-06-10T08:13:35;12.00;;;6.10;;
64885;SDS011;51514;52.206;5.114;2023-06-10T08:16:00;8.95;;;5.32;;
64885;SDS011;51514;52.206;5.114;2023-06-10T08:18:26;13.35;;;6.07;;
64885;SDS011;51514;52.206;5.114;2023-06-10T08:20:51;10.20;;;5.63;;
64885;SDS011;51514;52.206;5.114;2023-06-10T08:23:17;9.50;;;5.38;;
64885;SDS011;51514;52.206;5.114;2023-06-10T08:25:42;10.93;;;5.95;;
64885;SDS011;51514;52.206;5.114;2023-06-10T08:28:07;10.75;;;6.40;;
64885;SDS011;51514;52.206;5.114;2023-06-10T08:30:32;12.32;;;5.50;;
64885;SDS011;51514;52.206;5.114;2023-06-10T08:32:58;9.82;;;6.05;;
64885;SDS011;51514;52.206;5.114;2023-06-10T08:35:23;10.50;;;5.63;;
64885;SDS011;51514;52.206;5.114;2023-06-10T08:37:48;9.00;;;5.13;;
64885;SDS011;51514;52.206;5.114;2023-06-10T08:40:14;9.35;;;5.90;;
64885;SDS011;51514;52.206;5.114;2023-06-10T08:42:40;9.48;;;5.95;;
64885;SDS011;51514;52.206;5.114;2023-06-10T08:45:27;11.10;;;5.63;;
64885;SDS011;51514;52.206;5.114;2023-06-10T08:47:56;8.63;;;5.95;;
64885;SDS011;51514;52.206;5.114;2023-06-10T08:50:22;12.05;;;5.50;;
64885;SDS011;51514;52.206;5.114;2023-06-10T08:52:48;12.27;;;5.43;;
64885;SDS011;51514;52.206;5.114;2023-06-10T08:55:21;8.93;;;5.72;;
64885;SDS011;51514;52.206;5.114;2023-06-10T08:57:51;6.95;;;5.25;;
64885;SDS011;51514;52.206;5.114;2023-06-10T09:00:18;10.07;;;5.18;;
64885;SDS011;51514;52.206;5.114;2023-06-10T09:02:44;10.32;;;5.75;;
64885;SDS011;51514;52.206;5.114;2023-06-10T09:05:09;7.50;;;5.22;;
64885;SDS011;51514;52.206;5.114;2023-06-10T09:07:35;8.13;;;5.32;;
64885;SDS011;51514;52.206;5.114;2023-06-10T09:10:02;10.38;;;5.78;;
64885;SDS011;51514;52.206;5.114;2023-06-10T09:12:29;9.00;;;5.30;;
64885;SDS011;51514;52.206;5.114;2023-06-10T09:14:54;7.75;;;5.30;;
64885;SDS011;51514;52.206;5.114;2023-06-10T09:17:20;11.57;;;6.25;;
64885;SDS011;51514;52.206;5.114;2023-06-10T09:19:45;12.20;;;6.30;;
64885;SDS011;51514;52.206;5.114;2023-06-10T09:22:11;8.70;;;5.18;;
64885;SDS011;51514;52.206;5.114;2023-06-10T09:24:37;8.52;;;5.15;;
64885;SDS011;51514;52.206;5.114;2023-06-10T09:27:04;10.35;;;5.22;;
64885;SDS011;51514;52.206;5.114;2023-06-10T09:29:31;10.23;;;5.65;;
64885;SDS011;51514;52.206;5.114;2023-06-10T09:32:13;7.22;;;5.75;;
64885;SDS011;51514;52.206;5.114;2023-06-10T09:34:38;10.05;;;5.70;;
64885;SDS011;51514;52.206;5.114;2023-06-10T09:37:04;8.88;;;5.20;;
64885;SDS011;51514;52.206;5.114;2023-06-10T09:39:30;11.55;;;5.72;;
64885;SDS011;51514;52.206;5.114;2023-06-10T09:41:55;10.43;;;4.85;;
64885;SDS011;51514;52.206;5.114;2023-06-10T09:44:20;9.80;;;5.47;;
64885;SDS011;51514;52.206;5.114;2023-06-10T09:46:47;8.98;;;5.60;;
64885;SDS011;51514;52.206;5.114;2023-06-10T09:49:19;9.10;;;5.00;;
64885;SDS011;51514;52.206;5.114;2023-06-10T09:51:50;7.13;;;5.20;;
64885;SDS011;51514;52.206;5.114;2023-06-10T09:54:16;9.73;;;5.35;;
64885;SDS011;51514;52.206;5.114;2023-06-10T09:56:43;9.38;;;5.35;;
64885;SDS011;51514;52.206;5.114;2023-06-10T09:59:12;10.32;;;5.22;;
64885;SDS011;51514;52.206;5.114;2023-06-10T10:01:37;8.65;;;4.72;;
64885;SDS011;51514;52.206;5.114;2023-06-10T10:04:03;7.63;;;5.15;;
64885;SDS011;51514;52.206;5.114;2023-06-10T10:06:29;8.68;;;4.60;;
64885;SDS011;51514;52.206;5.114;2023-06-10T10:08:55;11.55;;;5.53;;
64885;SDS011;51514;52.206;5.114;2023-06-10T10:11:21;8.75;;;5.28;;
64885;SDS011;51514;52.206;5.114;2023-06-10T10:13:47;7.45;;;5.25;;
64885;SDS011;51514;52.206;5.114;2023-06-10T10:16:19;16.13;;;5.65;;
64885;SDS011;51514;52.206;5.114;2023-06-10T10:18:51;11.90;;;5.30;;
64885;SDS011;51514;52.206;5.114;2023-06-10T10:21:21;9.15;;;5.28;;
64885;SDS011;51514;52.206;5.114;2023-06-10T10:24:09;6.72;;;4.65;;
64885;SDS011;51514;52.206;5.114;2023-06-10T10:26:36;7.90;;;4.80;;
64885;SDS011;51514;52.206;5.114;2023-06-10T10:31:42;7.80;;;4.50;;
64885;SDS011;51514;52.206;5.114;2023-06-10T10:34:15;8.57;;;4.85;;
64885;SDS011;51514;52.206;5.114;2023-06-10T10:36:43;10.20;;;4.78;;
64885;SDS011;51514;52.206;5.114;2023-06-10T10:39:10;8.93;;;4.80;;
64885;SDS011;51514;52.206;5.114;2023-06-10T10:41:37;8.05;;;4.70;;
64885;SDS011;51514;52.206;5.114;2023-06-10T10:44:03;7.88;;;4.95;;
64885;SDS011;51514;52.206;5.114;2023-06-10T10:46:41;8.95;;;5.43;;
64885;SDS011;51514;52.206;5.114;2023-06-10T10:49:07;7.35;;;5.10;;
64885;SDS011;51514;52.206;5.114;2023-06-10T10:51:34;9.48;;;4.85;;
64885;SDS011;51514;52.206;5.114;2023-06-10T10:54:13;7.60;;;5.13;;
64885;SDS011;51514;52.206;5.114;2023-06-10T10:56:38;7.57;;;5.50;;
64885;SDS011;51514;52.206;5.114;2023-06-10T10:59:04;7.90;;;5.00;;
64885;SDS011;51514;52.206;5.114;2023-06-10T11:01:40;8.65;;;5.30;;
64885;SDS011;51514;52.206;5.114;2023-06-10T11:04:07;7.18;;;4.70;;
64885;SDS011;51514;52.206;5.114;2023-06-10T11:06:36;9.18;;;5.15;;
64885;SDS011;51514;52.206;5.114;2023-06-10T11:09:02;6.57;;;4.53;;
64885;SDS011;51514;52.206;5.114;2023-06-10T11:11:51;11.77;;;4.85;;
64885;SDS011;51514;52.206;5.114;2023-06-10T11:14:25;8.98;;;4.97;;
64885;SDS011;51514;52.206;5.114;2023-06-10T11:16:53;8.55;;;4.65;;
64885;SDS011;51514;52.206;5.114;2023-06-10T11:19:34;7.80;;;5.53;;
64885;SDS011;51514;52.206;5.114;2023-06-10T11:22:02;8.68;;;4.40;;
64885;SDS011;51514;52.206;5.114;2023-06-10T11:24:34;6.05;;;4.63;;
64885;SDS011;51514;52.206;5.114;2023-06-10T11:27:16;6.00;;;4.78;;
64885;SDS011;51514;52.206;5.114;2023-06-10T11:32:24;6.47;;;4.60;;
64885;SDS011;51514;52.206;5.114;2023-06-10T11:34:55;9.27;;;4.70;;
64885;SDS011;51514;52.206;5.114;2023-06-10T11:37:21;8.25;;;5.10;;
64885;SDS011;51514;52.206;5.114;2023-06-10T11:39:47;6.43;;;4.80;;
64885;SDS011;51514;52.206;5.114;2023-06-10T11:42:16;8.50;;;4.65;;
64885;SDS011;51514;52.206;5.114;2023-06-10T11:44:47;7.88;;;4.40;;
64885;SDS011;51514;52.206;5.114;2023-06-10T11:47:16;9.35;;;5.05;;
64885;SDS011;51514;52.206;5.114;2023-06-10T11:49:43;7.80;;;4.60;;
64885;SDS011;51514;52.206;5.114;2023-06-10T11:52:09;9.63;;;4.70;;
64885;SDS011;51514;52.206;5.114;2023-06-10T11:54:35;8.45;;;4.75;;
64885;SDS011;51514;52.206;5.114;2023-06-10T11:57:01;9.93;;;5.25;;
64885;SDS011;51514;52.206;5.114;2023-06-10T11:59:28;7.75;;;4.75;;
64885;SDS011;51514;52.206;5.114;2023-06-10T12:01:54;11.95;;;4.72;;
64885;SDS011;51514;52.206;5.114;2023-06-10T12:04:19;6.97;;;4.75;;
64885;SDS011;51514;52.206;5.114;2023-06-10T12:06:48;6.78;;;4.90;;
64885;SDS011;51514;52.206;5.114;2023-06-10T12:11:43;10.55;;;4.82;;
64885;SDS011;51514;52.206;5.114;2023-06-10T12:14:09;10.85;;;4.85;;
64885;SDS011;51514;52.206;5.114;2023-06-10T12:16:34;6.25;;;4.32;;
64885;SDS011;51514;52.206;5.114;2023-06-10T12:19:03;6.45;;;4.45;;
64885;SDS011;51514;52.206;5.114;2023-06-10T12:21:31;6.30;;;4.28;;
64885;SDS011;51514;52.206;5.114;2023-06-10T12:24:09;6.72;;;4.47;;
64885;SDS011;51514;52.206;5.114;2023-06-10T12:26:36;9.93;;;4.80;;
64885;SDS011;51514;52.206;5.114;2023-06-10T12:31:58;12.73;;;4.43;;
64885;SDS011;51514;52.206;5.114;2023-06-10T12:34:29;8.55;;;4.68;;
64885;SDS011;51514;52.206;5.114;2023-06-10T12:36:55;6.75;;;4.78;;
64885;SDS011;51514;52.206;5.114;2023-06-10T12:39:21;7.95;;;5.05;;
64885;SDS011;51514;52.206;5.114;2023-06-10T12:41:47;8.27;;;5.03;;
64885;SDS011;51514;52.206;5.114;2023-06-10T12:44:13;7.95;;;5.10;;
64885;SDS011;51514;52.206;5.114;2023-06-10T12:46:39;6.88;;;4.57;;
64885;SDS011;51514;52.206;5.114;2023-06-10T12:49:04;7.05;;;4.15;;
64885;SDS011;51514;52.206;5.114;2023-06-10T12:51:29;13.57;;;4.80;;
64885;SDS011;51514;52.206;5.114;2023-06-10T12:53:55;9.05;;;4.93;;
64885;SDS011;51514;52.206;5.114;2023-06-10T12:56:20;9.75;;;4.80;;
64885;SDS011;51514;52.206;5.114;2023-06-10T12:58:47;9.35;;;5.22;;
64885;SDS011;51514;52.206;5.114;2023-06-10T13:01:12;10.63;;;5.28;;
64885;SDS011;51514;52.206;5.114;2023-06-10T13:03:38;8.02;;;4.57;;
64885;SDS011;51514;52.206;5.114;2023-06-10T13:06:05;6.75;;;4.65;;
64885;SDS011;51514;52.206;5.114;2023-06-10T13:08:31;6.47;;;4.75;;
64885;SDS011;51514;52.206;5.114;2023-06-10T13:10:57;7.15;;;4.75;;
64885;SDS011;51514;52.206;5.114;2023-06-10T13:13:23;5.93;;;4.68;;
64885;SDS011;51514;52.206;5.114;2023-06-10T13:15:49;6.90;;;4.93;;
64885;SDS011;51514;52.206;5.114;2023-06-10T13:18:15;6.80;;;4.45;;
64885;SDS011;51514;52.206;5.114;2023-06-10T13:20:40;12.27;;;5.18;;
64885;SDS011;51514;52.206;5.114;2023-06-10T13:23:06;7.95;;;4.40;;
64885;SDS011;51514;52.206;5.114;2023-06-10T13:25:31;7.63;;;4.50;;
64885;SDS011;51514;52.206;5.114;2023-06-10T13:27:57;6.40;;;4.47;;
64885;SDS011;51514;52.206;5.114;2023-06-10T13:30:22;7.72;;;5.13;;
64885;SDS011;51514;52.206;5.114;2023-06-10T13:32:48;8.82;;;4.65;;
64885;SDS011;51514;52.206;5.114;2023-06-10T13:35:13;7.82;;;5.03;;
64885;SDS011;51514;52.206;5.114;2023-06-10T13:37:38;6.93;;;4.78;;
64885;SDS011;51514;52.206;5.114;2023-06-10T13:40:04;7.30;;;4.90;;
64885;SDS011;51514;52.206;5.114;2023-06-10T13:42:30;10.02;;;5.47;;
64885;SDS011;51514;52.206;5.114;2023-06-10T13:44:55;9.02;;;4.85;;
64885;SDS011;51514;52.206;5.114;2023-06-10T13:47:21;6.60;;;4.40;;
64885;SDS011;51514;52.206;5.114;2023-06-10T13:49:47;6.78;;;4.70;;
64885;SDS011;51514;52.206;5.114;2023-06-10T13:52:12;11.68;;;4.82;;
64885;SDS011;51514;52.206;5.114;2023-06-10T13:54:38;9.15;;;4.97;;
64885;SDS011;51514;52.206;5.114;2023-06-10T13:57:03;8.50;;;4.78;;
64885;SDS011;51514;52.206;5.114;2023-06-10T13:59:29;6.28;;;4.43;;
64885;SDS011;51514;52.206;5.114;2023-06-10T14:01:54;6.68;;;4.45;;
64885;SDS011;51514;52.206;5.114;2023-06-10T14:04:20;7.75;;;5.07;;
64885;SDS011;51514;52.206;5.114;2023-06-10T14:06:46;8.68;;;5.03;;
64885;SDS011;51514;52.206;5.114;2023-06-10T14:09:14;13.10;;;4.75;;
64885;SDS011;51514;52.206;5.114;2023-06-10T14:11:41;6.88;;;4.75;;
64885;SDS011;51514;52.206;5.114;2023-06-10T14:14:07;8.27;;;4.65;;
64885;SDS011;51514;52.206;5.114;2023-06-10T14:16:32;7.38;;;4.63;;
64885;SDS011;51514;52.206;5.114;2023-06-10T14:18:57;6.05;;;5.00;;
64885;SDS011;51514;52.206;5.114;2023-06-10T14:21:23;7.03;;;4.50;;
64885;SDS011;51514;52.206;5.114;2023-06-10T14:23:48;7.85;;;4.72;;
64885;SDS011;51514;52.206;5.114;2023-06-10T14:26:15;6.05;;;4.55;;
64885;SDS011;51514;52.206;5.114;2023-06-10T14:28:40;6.78;;;5.32;;
64885;SDS011;51514;52.206;5.114;2023-06-10T14:31:05;6.38;;;4.65;;
64885;SDS011;51514;52.206;5.114;2023-06-10T14:33:32;6.97;;;4.20;;
64885;SDS011;51514;52.206;5.114;2023-06-10T14:35:57;9.02;;;4.20;;
64885;SDS011;51514;52.206;5.114;2023-06-10T14:38:23;10.93;;;5.07;;
64885;SDS011;51514;52.206;5.114;2023-06-10T14:40:48;7.40;;;4.65;;
64885;SDS011;51514;52.206;5.114;2023-06-10T14:43:13;8.25;;;4.78;;
64885;SDS011;51514;52.206;5.114;2023-06-10T14:45:39;7.43;;;4.38;;
64885;SDS011;51514;52.206;5.114;2023-06-10T14:48:06;10.30;;;4.57;;
64885;SDS011;51514;52.206;5.114;2023-06-10T14:50:32;8.05;;;4.72;;
64885;SDS011;51514;52.206;5.114;2023-06-10T14:52:59;5.68;;;3.95;;
64885;SDS011;51514;52.206;5.114;2023-06-10T14:55:25;5.90;;;4.55;;
64885;SDS011;51514;52.206;5.114;2023-06-10T14:57:50;9.23;;;4.38;;